Gillett, Texas
Current Conditions -  °F | °C
As of 1:15 PM on Friday 28 Nov 2014 (Local Time) from KT20 Reporting Station
Clear Clear  
Wind Chill: 74°   Ceiling: Unl
Heat Index: 74°   Visibility: 10mi
Dew Point: 53°   Wind: 17mph
Humidity: 47%   Direction: 190°S
Pressure: 30.19"   Gusts: 22mph
Location:  29.13°N, 97.78°W
Report Text: KT20 281915Z AUTO 19015G19KT 10SM CLR 23/12 A3019 RMK AO2 T02340115
Loading
Personal Weather Stations






























Interactive Weather Map New forecast layout! Learn more

10-Day Weather Forecast

Advertisements
Track Severe Weather on mobile